sensor_id;sensor_type;location;lat;lon;timestamp;temperature;humidity
33095;DHT22;19459;53.044;8.910;2023-12-20T00:01:48;6.10;99.90
33095;DHT22;19459;53.044;8.910;2023-12-20T00:04:14;6.10;99.90
33095;DHT22;19459;53.044;8.910;2023-12-20T00:06:41;6.00;99.90
33095;DHT22;19459;53.044;8.910;2023-12-20T00:09:06;6.00;99.90
33095;DHT22;19459;53.044;8.910;2023-12-20T00:11:32;6.10;99.90
33095;DHT22;19459;53.044;8.910;2023-12-20T00:13:58;6.00;99.90
33095;DHT22;19459;53.044;8.910;2023-12-20T00:16:24;6.00;99.90
33095;DHT22;19459;53.044;8.910;2023-12-20T00:18:49;5.90;99.90
33095;DHT22;19459;53.044;8.910;2023-12-20T00:21:15;5.90;99.90
33095;DHT22;19459;53.044;8.910;2023-12-20T00:23:41;5.90;99.90
33095;DHT22;19459;53.044;8.910;2023-12-20T00:26:07;5.90;99.90
33095;DHT22;19459;53.044;8.910;2023-12-20T00:28:32;5.80;99.90
33095;DHT22;19459;53.044;8.910;2023-12-20T00:30:58;5.90;99.90
33095;DHT22;19459;53.044;8.910;2023-12-20T00:33:24;5.80;99.90
33095;DHT22;19459;53.044;8.910;2023-12-20T00:35:50;5.80;99.90
33095;DHT22;19459;53.044;8.910;2023-12-20T00:38:15;5.80;99.90
33095;DHT22;19459;53.044;8.910;2023-12-20T00:40:41;5.80;99.90
33095;DHT22;19459;53.044;8.910;2023-12-20T00:43:07;5.80;99.90
33095;DHT22;19459;53.044;8.910;2023-12-20T00:45:33;5.70;99.90
33095;DHT22;19459;53.044;8.910;2023-12-20T00:47:58;5.70;99.90
33095;DHT22;19459;53.044;8.910;2023-12-20T00:50:24;5.70;99.90
33095;DHT22;19459;53.044;8.910;2023-12-20T00:52:50;5.60;99.90
33095;DHT22;19459;53.044;8.910;2023-12-20T00:55:16;5.70;99.90
33095;DHT22;19459;53.044;8.910;2023-12-20T00:57:42;5.70;99.90
33095;DHT22;19459;53.044;8.910;2023-12-20T01:00:08;5.80;99.90
33095;DHT22;19459;53.044;8.910;2023-12-20T01:02:38;5.70;99.90
33095;DHT22;19459;53.044;8.910;2023-12-20T01:05:04;5.80;99.90
33095;DHT22;19459;53.044;8.910;2023-12-20T01:07:31;5.70;99.90
33095;DHT22;19459;53.044;8.910;2023-12-20T01:09:56;5.70;99.90
33095;DHT22;19459;53.044;8.910;2023-12-20T01:12:22;5.70;99.90
33095;DHT22;19459;53.044;8.910;2023-12-20T01:14:48;5.60;99.90
33095;DHT22;19459;53.044;8.910;2023-12-20T01:17:14;5.70;99.90
33095;DHT22;19459;53.044;8.910;2023-12-20T01:19:39;5.60;99.90
33095;DHT22;19459;53.044;8.910;2023-12-20T01:22:05;5.60;99.90
33095;DHT22;19459;53.044;8.910;2023-12-20T01:24:31;5.60;99.90
33095;DHT22;19459;53.044;8.910;2023-12-20T01:26:57;5.50;99.90
33095;DHT22;19459;53.044;8.910;2023-12-20T01:29:23;5.50;99.90
33095;DHT22;19459;53.044;8.910;2023-12-20T01:31:49;5.60;99.90
33095;DHT22;19459;53.044;8.910;2023-12-20T01:34:15;5.60;99.90
33095;DHT22;19459;53.044;8.910;2023-12-20T01:36:41;5.60;99.90
33095;DHT22;19459;53.044;8.910;2023-12-20T01:39:07;5.60;99.90
33095;DHT22;19459;53.044;8.910;2023-12-20T01:41:33;5.60;99.90
33095;DHT22;19459;53.044;8.910;2023-12-20T01:43:59;5.60;99.90
33095;DHT22;19459;53.044;8.910;2023-12-20T01:46:25;5.60;99.90
33095;DHT22;19459;53.044;8.910;2023-12-20T01:48:52;5.60;99.90
33095;DHT22;19459;53.044;8.910;2023-12-20T01:51:19;5.70;99.90
33095;DHT22;19459;53.044;8.910;2023-12-20T01:53:45;5.70;99.90
33095;DHT22;19459;53.044;8.910;2023-12-20T01:56:11;5.70;99.90
33095;DHT22;19459;53.044;8.910;2023-12-20T01:58:44;5.70;99.90
33095;DHT22;19459;53.044;8.910;2023-12-20T02:01:11;5.70;99.90
33095;DHT22;19459;53.044;8.910;2023-12-20T02:03:42;5.70;99.90
33095;DHT22;19459;53.044;8.910;2023-12-20T02:06:09;5.60;99.90
33095;DHT22;19459;53.044;8.910;2023-12-20T02:08:38;5.70;99.90
33095;DHT22;19459;53.044;8.910;2023-12-20T02:11:04;5.60;99.90
33095;DHT22;19459;53.044;8.910;2023-12-20T02:13:30;5.60;99.90
33095;DHT22;19459;53.044;8.910;2023-12-20T02:15:57;5.70;99.90
33095;DHT22;19459;53.044;8.910;2023-12-20T02:18:23;5.60;99.90
33095;DHT22;19459;53.044;8.910;2023-12-20T02:20:49;5.60;99.90
33095;DHT22;19459;53.044;8.910;2023-12-20T02:23:15;5.60;99.90
33095;DHT22;19459;53.044;8.910;2023-12-20T02:25:40;5.50;99.90
33095;DHT22;19459;53.044;8.910;2023-12-20T02:28:06;5.50;99.90
33095;DHT22;19459;53.044;8.910;2023-12-20T02:30:32;5.50;99.90
33095;DHT22;19459;53.044;8.910;2023-12-20T02:32:59;5.40;99.90
33095;DHT22;19459;53.044;8.910;2023-12-20T02:35:26;5.40;99.90
33095;DHT22;19459;53.044;8.910;2023-12-20T02:37:51;5.40;99.90
33095;DHT22;19459;53.044;8.910;2023-12-20T02:40:17;5.40;99.90
33095;DHT22;19459;53.044;8.910;2023-12-20T02:42:43;5.40;99.90
33095;DHT22;19459;53.044;8.910;2023-12-20T02:45:09;5.40;99.90
33095;DHT22;19459;53.044;8.910;2023-12-20T02:47:34;5.40;99.90
33095;DHT22;19459;53.044;8.910;2023-12-20T02:50:00;5.40;99.90
33095;DHT22;19459;53.044;8.910;2023-12-20T02:52:28;5.40;99.90
33095;DHT22;19459;53.044;8.910;2023-12-20T02:54:54;5.50;99.90
33095;DHT22;19459;53.044;8.910;2023-12-20T02:57:20;5.50;99.90
33095;DHT22;19459;53.044;8.910;2023-12-20T02:59:46;5.50;99.90
33095;DHT22;19459;53.044;8.910;2023-12-20T03:02:11;5.50;99.90
33095;DHT22;19459;53.044;8.910;2023-12-20T03:04:37;5.60;99.90
33095;DHT22;19459;53.044;8.910;2023-12-20T03:07:03;5.60;99.90
33095;DHT22;19459;53.044;8.910;2023-12-20T03:09:29;5.60;99.90
33095;DHT22;19459;53.044;8.910;2023-12-20T03:11:56;5.60;99.90
33095;DHT22;19459;53.044;8.910;2023-12-20T03:14:21;5.60;99.90
33095;DHT22;19459;53.044;8.910;2023-12-20T03:16:49;5.60;99.90
33095;DHT22;19459;53.044;8.910;2023-12-20T03:19:16;5.60;99.90
33095;DHT22;19459;53.044;8.910;2023-12-20T03:21:42;5.60;99.90
33095;DHT22;19459;53.044;8.910;2023-12-20T03:24:08;5.60;99.90
33095;DHT22;19459;53.044;8.910;2023-12-20T03:26:33;5.70;99.90
33095;DHT22;19459;53.044;8.910;2023-12-20T03:28:59;5.70;99.90
33095;DHT22;19459;53.044;8.910;2023-12-20T03:31:25;5.80;99.90
33095;DHT22;19459;53.044;8.910;2023-12-20T03:33:51;5.70;99.90
33095;DHT22;19459;53.044;8.910;2023-12-20T03:36:19;5.70;99.90
33095;DHT22;19459;53.044;8.910;2023-12-20T03:38:45;5.70;99.90
33095;DHT22;19459;53.044;8.910;2023-12-20T03:41:11;5.70;99.90
33095;DHT22;19459;53.044;8.910;2023-12-20T03:43:37;5.80;99.90
33095;DHT22;19459;53.044;8.910;2023-12-20T03:46:03;5.80;99.90
33095;DHT22;19459;53.044;8.910;2023-12-20T03:48:30;5.80;99.90
33095;DHT22;19459;53.044;8.910;2023-12-20T03:50:57;5.80;99.90
33095;DHT22;19459;53.044;8.910;2023-12-20T03:53:23;5.90;99.90
33095;DHT22;19459;53.044;8.910;2023-12-20T03:55:48;5.90;99.90
33095;DHT22;19459;53.044;8.910;2023-12-20T03:58:14;5.90;99.90
33095;DHT22;19459;53.044;8.910;2023-12-20T04:00:40;5.90;99.90
33095;DHT22;19459;53.044;8.910;2023-12-20T04:03:07;5.90;99.90
33095;DHT22;19459;53.044;8.910;2023-12-20T04:05:33;5.90;99.90
33095;DHT22;19459;53.044;8.910;2023-12-20T04:08:01;6.00;99.90
33095;DHT22;19459;53.044;8.910;2023-12-20T04:10:27;5.90;99.90
33095;DHT22;19459;53.044;8.910;2023-12-20T04:12:53;6.00;99.90
33095;DHT22;19459;53.044;8.910;2023-12-20T04:15:21;6.00;99.90
33095;DHT22;19459;53.044;8.910;2023-12-20T04:17:47;6.00;99.90
33095;DHT22;19459;53.044;8.910;2023-12-20T04:20:13;6.00;99.90
33095;DHT22;19459;53.044;8.910;2023-12-20T04:22:38;6.00;99.90
33095;DHT22;19459;53.044;8.910;2023-12-20T04:25:04;6.00;99.90
33095;DHT22;19459;53.044;8.910;2023-12-20T04:27:30;6.00;99.90
33095;DHT22;19459;53.044;8.910;2023-12-20T04:29:56;6.00;99.90
33095;DHT22;19459;53.044;8.910;2023-12-20T04:32:22;6.00;99.90
33095;DHT22;19459;53.044;8.910;2023-12-20T04:34:48;6.00;99.90
33095;DHT22;19459;53.044;8.910;2023-12-20T04:37:15;6.00;99.90
33095;DHT22;19459;53.044;8.910;2023-12-20T04:39:41;6.00;99.90
33095;DHT22;19459;53.044;8.910;2023-12-20T04:42:07;6.10;99.90
33095;DHT22;19459;53.044;8.910;2023-12-20T04:44:32;6.10;99.90
33095;DHT22;19459;53.044;8.910;2023-12-20T04:46:59;6.10;99.90
33095;DHT22;19459;53.044;8.910;2023-12-20T04:49:25;6.10;99.90
33095;DHT22;19459;53.044;8.910;2023-12-20T04:51:52;6.10;99.90
33095;DHT22;19459;53.044;8.910;2023-12-20T04:54:18;6.00;99.90
33095;DHT22;19459;53.044;8.910;2023-12-20T04:56:44;6.10;99.90
33095;DHT22;19459;53.044;8.910;2023-12-20T04:59:11;6.10;99.90
33095;DHT22;19459;53.044;8.910;2023-12-20T05:01:36;6.10;99.90
33095;DHT22;19459;53.044;8.910;2023-12-20T05:04:02;6.10;99.90
33095;DHT22;19459;53.044;8.910;2023-12-20T05:06:29;6.10;99.90
33095;DHT22;19459;53.044;8.910;2023-12-20T05:08:55;6.10;99.90
33095;DHT22;19459;53.044;8.910;2023-12-20T05:11:21;6.10;99.90
33095;DHT22;19459;53.044;8.910;2023-12-20T05:13:47;6.20;99.90
33095;DHT22;19459;53.044;8.910;2023-12-20T05:16:13;6.20;99.90
33095;DHT22;19459;53.044;8.910;2023-12-20T05:18:44;6.20;99.90
33095;DHT22;19459;53.044;8.910;2023-12-20T05:21:10;6.20;99.90
33095;DHT22;19459;53.044;8.910;2023-12-20T05:23:36;6.20;99.90
33095;DHT22;19459;53.044;8.910;2023-12-20T05:26:02;6.20;99.90
33095;DHT22;19459;53.044;8.910;2023-12-20T05:28:28;6.20;99.90
33095;DHT22;19459;53.044;8.910;2023-12-20T05:30:54;6.30;99.90
33095;DHT22;19459;53.044;8.910;2023-12-20T05:33:20;6.30;99.90
33095;DHT22;19459;53.044;8.910;2023-12-20T05:35:45;6.30;99.90
33095;DHT22;19459;53.044;8.910;2023-12-20T05:38:11;6.30;99.90
33095;DHT22;19459;53.044;8.910;2023-12-20T05:40:37;6.20;99.90
33095;DHT22;19459;53.044;8.910;2023-12-20T05:43:03;6.20;99.90
33095;DHT22;19459;53.044;8.910;2023-12-20T05:45:29;6.20;99.90
33095;DHT22;19459;53.044;8.910;2023-12-20T05:47:55;6.20;99.90
33095;DHT22;19459;53.044;8.910;2023-12-20T05:50:21;6.20;99.90
33095;DHT22;19459;53.044;8.910;2023-12-20T05:52:47;6.20;99.90
33095;DHT22;19459;53.044;8.910;2023-12-20T05:55:13;6.20;99.90
33095;DHT22;19459;53.044;8.910;2023-12-20T05:57:40;6.20;99.90
33095;DHT22;19459;53.044;8.910;2023-12-20T06:00:06;6.30;99.90
33095;DHT22;19459;53.044;8.910;2023-12-20T06:02:33;6.30;99.90
33095;DHT22;19459;53.044;8.910;2023-12-20T06:04:58;6.30;99.90
33095;DHT22;19459;53.044;8.910;2023-12-20T06:07:24;6.40;99.90
33095;DHT22;19459;53.044;8.910;2023-12-20T06:09:50;6.40;99.90
33095;DHT22;19459;53.044;8.910;2023-12-20T06:12:16;6.40;99.90
33095;DHT22;19459;53.044;8.910;2023-12-20T06:14:44;6.40;99.90
33095;DHT22;19459;53.044;8.910;2023-12-20T06:17:10;6.40;99.90
33095;DHT22;19459;53.044;8.910;2023-12-20T06:19:36;6.40;99.90
33095;DHT22;19459;53.044;8.910;2023-12-20T06:22:02;6.50;99.90
33095;DHT22;19459;53.044;8.910;2023-12-20T06:24:28;6.50;99.90
33095;DHT22;19459;53.044;8.910;2023-12-20T06:26:55;6.50;99.90
33095;DHT22;19459;53.044;8.910;2023-12-20T06:29:21;6.50;99.90
33095;DHT22;19459;53.044;8.910;2023-12-20T06:31:47;6.60;99.90
33095;DHT22;19459;53.044;8.910;2023-12-20T06:34:12;6.50;99.90
33095;DHT22;19459;53.044;8.910;2023-12-20T06:36:38;6.50;99.90
33095;DHT22;19459;53.044;8.910;2023-12-20T06:39:04;6.60;99.90
33095;DHT22;19459;53.044;8.910;2023-12-20T06:41:30;6.60;99.90
33095;DHT22;19459;53.044;8.910;2023-12-20T06:43:57;6.60;99.90
33095;DHT22;19459;53.044;8.910;2023-12-20T06:46:23;6.60;99.90
33095;DHT22;19459;53.044;8.910;2023-12-20T06:48:50;6.60;99.90
33095;DHT22;19459;53.044;8.910;2023-12-20T06:51:16;6.60;99.90
33095;DHT22;19459;53.044;8.910;2023-12-20T06:53:45;6.70;99.90
33095;DHT22;19459;53.044;8.910;2023-12-20T06:56:12;6.60;99.90
33095;DHT22;19459;53.044;8.910;2023-12-20T06:58:38;6.70;99.90
33095;DHT22;19459;53.044;8.910;2023-12-20T07:01:04;6.70;99.90
33095;DHT22;19459;53.044;8.910;2023-12-20T07:03:31;6.70;99.90
33095;DHT22;19459;53.044;8.910;2023-12-20T07:05:57;6.80;99.90
33095;DHT22;19459;53.044;8.910;2023-12-20T07:08:26;6.80;99.90
33095;DHT22;19459;53.044;8.910;2023-12-20T07:10:53;6.70;99.90
33095;DHT22;19459;53.044;8.910;2023-12-20T07:13:19;6.70;99.90
33095;DHT22;19459;53.044;8.910;2023-12-20T07:15:46;6.80;99.90
33095;DHT22;19459;53.044;8.910;2023-12-20T07:18:12;6.70;99.90
33095;DHT22;19459;53.044;8.910;2023-12-20T07:20:38;6.70;99.90
33095;DHT22;19459;53.044;8.910;2023-12-20T07:23:04;6.80;99.90
33095;DHT22;19459;53.044;8.910;2023-12-20T07:25:30;6.80;99.90
33095;DHT22;19459;53.044;8.910;2023-12-20T07:27:58;6.80;99.90
33095;DHT22;19459;53.044;8.910;2023-12-20T07:30:24;6.80;99.90
33095;DHT22;19459;53.044;8.910;2023-12-20T07:32:50;6.80;99.90
33095;DHT22;19459;53.044;8.910;2023-12-20T07:35:18;6.80;99.90
33095;DHT22;19459;53.044;8.910;2023-12-20T07:37:44;6.80;99.90
33095;DHT22;19459;53.044;8.910;2023-12-20T07:40:10;6.90;99.90
33095;DHT22;19459;53.044;8.910;2023-12-20T07:42:36;6.90;99.90
33095;DHT22;19459;53.044;8.910;2023-12-20T07:45:03;6.90;99.90
33095;DHT22;19459;53.044;8.910;2023-12-20T07:47:29;7.00;99.90
33095;DHT22;19459;53.044;8.910;2023-12-20T07:49:54;6.90;99.90
33095;DHT22;19459;53.044;8.910;2023-12-20T07:52:20;6.90;99.90
33095;DHT22;19459;53.044;8.910;2023-12-20T07:54:48;7.00;99.90
33095;DHT22;19459;53.044;8.910;2023-12-20T07:57:14;7.00;99.90
33095;DHT22;19459;53.044;8.910;2023-12-20T07:59:40;7.00;99.90
33095;DHT22;19459;53.044;8.910;2023-12-20T08:02:06;7.00;99.90
33095;DHT22;19459;53.044;8.910;2023-12-20T08:04:32;7.00;99.90
33095;DHT22;19459;53.044;8.910;2023-12-20T08:06:58;7.00;99.90
33095;DHT22;19459;53.044;8.910;2023-12-20T08:09:24;7.00;99.90
33095;DHT22;19459;53.044;8.910;2023-12-20T08:11:49;7.00;99.90
33095;DHT22;19459;53.044;8.910;2023-12-20T08:14:16;7.00;99.90
33095;DHT22;19459;53.044;8.910;2023-12-20T08:16:41;7.00;99.90
33095;DHT22;19459;53.044;8.910;2023-12-20T08:19:07;7.10;99.90
33095;DHT22;19459;53.044;8.910;2023-12-20T08:21:33;7.10;99.90
33095;DHT22;19459;53.044;8.910;2023-12-20T08:23:59;7.10;99.90
33095;DHT22;19459;53.044;8.910;2023-12-20T08:26:28;7.10;99.90
33095;DHT22;19459;53.044;8.910;2023-12-20T08:28:54;7.10;99.90
33095;DHT22;19459;53.044;8.910;2023-12-20T08:31:20;7.10;99.90
33095;DHT22;19459;53.044;8.910;2023-12-20T08:33:48;7.20;99.90
33095;DHT22;19459;53.044;8.910;2023-12-20T08:36:14;7.20;99.90
33095;DHT22;19459;53.044;8.910;2023-12-20T08:38:40;7.10;99.90
33095;DHT22;19459;53.044;8.910;2023-12-20T08:41:07;7.20;99.90
33095;DHT22;19459;53.044;8.910;2023-12-20T08:43:35;7.20;99.90
33095;DHT22;19459;53.044;8.910;2023-12-20T08:46:01;7.20;99.90
33095;DHT22;19459;53.044;8.910;2023-12-20T08:48:28;7.20;99.90
33095;DHT22;19459;53.044;8.910;2023-12-20T08:50:54;7.20;99.90
33095;DHT22;19459;53.044;8.910;2023-12-20T08:53:20;7.20;99.90
33095;DHT22;19459;53.044;8.910;2023-12-20T08:55:46;7.20;99.90
33095;DHT22;19459;53.044;8.910;2023-12-20T08:58:12;7.20;99.90
33095;DHT22;19459;53.044;8.910;2023-12-20T09:00:37;7.20;99.90
33095;DHT22;19459;53.044;8.910;2023-12-20T09:03:04;7.30;99.90
33095;DHT22;19459;53.044;8.910;2023-12-20T09:05:30;7.40;99.90
33095;DHT22;19459;53.044;8.910;2023-12-20T09:07:56;7.40;99.90
33095;DHT22;19459;53.044;8.910;2023-12-20T09:10:22;7.50;99.90
33095;DHT22;19459;53.044;8.910;2023-12-20T09:12:49;7.40;99.90
33095;DHT22;19459;53.044;8.910;2023-12-20T09:15:15;7.30;99.90
33095;DHT22;19459;53.044;8.910;2023-12-20T09:17:43;7.30;99.90
33095;DHT22;19459;53.044;8.910;2023-12-20T09:20:09;7.20;99.90
33095;DHT22;19459;53.044;8.910;2023-12-20T09:22:35;7.20;99.90
33095;DHT22;19459;53.044;8.910;2023-12-20T09:25:05;7.20;99.90
33095;DHT22;19459;53.044;8.910;2023-12-20T09:27:31;7.20;99.90
33095;DHT22;19459;53.044;8.910;2023-12-20T09:29:57;7.20;99.90
33095;DHT22;19459;53.044;8.910;2023-12-20T09:32:23;7.20;99.90
33095;DHT22;19459;53.044;8.910;2023-12-20T09:34:49;7.20;99.90
33095;DHT22;19459;53.044;8.910;2023-12-20T09:37:14;7.20;99.90
33095;DHT22;19459;53.044;8.910;2023-12-20T09:39:41;7.20;99.90
33095;DHT22;19459;53.044;8.910;2023-12-20T09:42:07;7.20;99.90
33095;DHT22;19459;53.044;8.910;2023-12-20T09:44:33;7.20;99.90
33095;DHT22;19459;53.044;8.910;2023-12-20T09:47:03;7.20;99.90
33095;DHT22;19459;53.044;8.910;2023-12-20T09:49:30;7.30;99.90
33095;DHT22;19459;53.044;8.910;2023-12-20T09:51:56;7.30;99.90
33095;DHT22;19459;53.044;8.910;2023-12-20T09:54:23;7.20;99.90
33095;DHT22;19459;53.044;8.910;2023-12-20T09:56:49;7.30;99.90
33095;DHT22;19459;53.044;8.910;2023-12-20T09:59:15;7.30;99.90
33095;DHT22;19459;53.044;8.910;2023-12-20T10:01:42;7.20;99.90
33095;DHT22;19459;53.044;8.910;2023-12-20T10:04:09;7.10;99.90
33095;DHT22;19459;53.044;8.910;2023-12-20T10:06:42;6.90;99.90
33095;DHT22;19459;53.044;8.910;2023-12-20T10:09:12;6.80;99.90
33095;DHT22;19459;53.044;8.910;2023-12-20T10:11:38;6.60;99.90
33095;DHT22;19459;53.044;8.910;2023-12-20T10:14:08;6.50;99.90
33095;DHT22;19459;53.044;8.910;2023-12-20T10:16:37;6.40;99.90
33095;DHT22;19459;53.044;8.910;2023-12-20T10:19:03;6.30;99.90
33095;DHT22;19459;53.044;8.910;2023-12-20T10:21:30;6.20;99.90
33095;DHT22;19459;53.044;8.910;2023-12-20T10:23:57;6.10;99.90
33095;DHT22;19459;53.044;8.910;2023-12-20T10:26:25;6.10;99.90
33095;DHT22;19459;53.044;8.910;2023-12-20T10:28:55;6.10;99.90
33095;DHT22;19459;53.044;8.910;2023-12-20T10:31:32;6.10;99.90
33095;DHT22;19459;53.044;8.910;2023-12-20T10:34:01;6.10;99.90
33095;DHT22;19459;53.044;8.910;2023-12-20T10:36:29;6.10;99.90
33095;DHT22;19459;53.044;8.910;2023-12-20T10:38:57;6.20;99.90
33095;DHT22;19459;53.044;8.910;2023-12-20T10:41:32;6.20;99.90
33095;DHT22;19459;53.044;8.910;2023-12-20T10:44:02;6.10;99.90
33095;DHT22;19459;53.044;8.910;2023-12-20T10:46:33;6.10;99.90
33095;DHT22;19459;53.044;8.910;2023-12-20T10:49:05;6.10;99.90
33095;DHT22;19459;53.044;8.910;2023-12-20T10:51:31;6.20;99.90
33095;DHT22;19459;53.044;8.910;2023-12-20T10:53:57;6.10;99.90
33095;DHT22;19459;53.044;8.910;2023-12-20T10:56:23;6.10;99.90
33095;DHT22;19459;53.044;8.910;2023-12-20T10:58:50;6.20;99.90
33095;DHT22;19459;53.044;8.910;2023-12-20T11:01:17;6.10;99.90
33095;DHT22;19459;53.044;8.910;2023-12-20T11:03:54;6.20;99.90
33095;DHT22;19459;53.044;8.910;2023-12-20T11:06:27;6.20;99.90
33095;DHT22;19459;53.044;8.910;2023-12-20T11:09:16;6.20;99.90
33095;DHT22;19459;53.044;8.910;2023-12-20T11:17:13;7.00;99.90
33095;DHT22;19459;53.044;8.910;2023-12-20T11:22:31;7.60;99.90
33095;DHT22;19459;53.044;8.910;2023-12-20T11:25:09;7.70;99.90
33095;DHT22;19459;53.044;8.910;2023-12-20T11:27:37;8.00;99.90
33095;DHT22;19459;53.044;8.910;2023-12-20T11:30:06;8.10;99.90
33095;DHT22;19459;53.044;8.910;2023-12-20T11:32:35;8.30;99.90
33095;DHT22;19459;53.044;8.910;2023-12-20T11:35:17;8.40;99.90
33095;DHT22;19459;53.044;8.910;2023-12-20T11:37:45;8.60;99.90
33095;DHT22;19459;53.044;8.910;2023-12-20T11:40:16;8.70;99.90
33095;DHT22;19459;53.044;8.910;2023-12-20T11:42:49;8.70;99.90
33095;DHT22;19459;53.044;8.910;2023-12-20T11:45:21;8.70;99.90
33095;DHT22;19459;53.044;8.910;2023-12-20T11:47:48;8.90;99.90
33095;DHT22;19459;53.044;8.910;2023-12-20T11:50:20;8.90;99.90
33095;DHT22;19459;53.044;8.910;2023-12-20T11:52:47;8.80;99.90
33095;DHT22;19459;53.044;8.910;2023-12-20T11:55:13;8.80;99.90
33095;DHT22;19459;53.044;8.910;2023-12-20T11:57:42;8.60;99.90
33095;DHT22;19459;53.044;8.910;2023-12-20T12:00:09;8.60;99.90
33095;DHT22;19459;53.044;8.910;2023-12-20T12:02:35;8.60;99.90
33095;DHT22;19459;53.044;8.910;2023-12-20T12:05:01;8.60;99.90
33095;DHT22;19459;53.044;8.910;2023-12-20T12:07:27;8.40;99.90
33095;DHT22;19459;53.044;8.910;2023-12-20T12:09:53;8.40;99.90
33095;DHT22;19459;53.044;8.910;2023-12-20T12:12:19;8.20;99.90
33095;DHT22;19459;53.044;8.910;2023-12-20T12:14:45;8.10;99.90
33095;DHT22;19459;53.044;8.910;2023-12-20T12:17:12;8.10;99.90
33095;DHT22;19459;53.044;8.910;2023-12-20T12:19:42;8.30;99.90
33095;DHT22;19459;53.044;8.910;2023-12-20T12:22:12;8.10;99.90
33095;DHT22;19459;53.044;8.910;2023-12-20T12:24:46;8.00;99.90
33095;DHT22;19459;53.044;8.910;2023-12-20T12:27:13;8.10;99.90
33095;DHT22;19459;53.044;8.910;2023-12-20T12:29:41;8.20;99.90
33095;DHT22;19459;53.044;8.910;2023-12-20T12:32:27;8.20;99.90
33095;DHT22;19459;53.044;8.910;2023-12-20T12:34:52;8.20;99.90
33095;DHT22;19459;53.044;8.910;2023-12-20T12:37:18;8.10;99.90
33095;DHT22;19459;53.044;8.910;2023-12-20T12:39:46;8.10;99.90
33095;DHT22;19459;53.044;8.910;2023-12-20T12:42:12;8.00;99.90
33095;DHT22;19459;53.044;8.910;2023-12-20T12:44:38;7.90;99.90
33095;DHT22;19459;53.044;8.910;2023-12-20T12:47:04;7.90;99.90
33095;DHT22;19459;53.044;8.910;2023-12-20T12:49:32;7.80;99.90
33095;DHT22;19459;53.044;8.910;2023-12-20T12:51:57;7.80;99.90
33095;DHT22;19459;53.044;8.910;2023-12-20T12:54:24;7.70;99.90
33095;DHT22;19459;53.044;8.910;2023-12-20T12:56:50;7.70;99.90
33095;DHT22;19459;53.044;8.910;2023-12-20T12:59:18;7.70;99.90
33095;DHT22;19459;53.044;8.910;2023-12-20T13:01:44;7.80;99.90
33095;DHT22;19459;53.044;8.910;2023-12-20T13:04:09;7.70;99.90
33095;DHT22;19459;53.044;8.910;2023-12-20T13:06:40;7.70;99.90
33095;DHT22;19459;53.044;8.910;2023-12-20T13:09:07;7.70;99.90
33095;DHT22;19459;53.044;8.910;2023-12-20T13:11:35;7.70;99.90
33095;DHT22;19459;53.044;8.910;2023-12-20T13:14:01;7.60;99.90
33095;DHT22;19459;53.044;8.910;2023-12-20T13:16:29;7.50;99.90
33095;DHT22;19459;53.044;8.910;2023-12-20T13:18:55;7.40;99.90
33095;DHT22;19459;53.044;8.910;2023-12-20T13:21:21;7.40;99.90
33095;DHT22;19459;53.044;8.910;2023-12-20T13:23:47;7.40;99.90
33095;DHT22;19459;53.044;8.910;2023-12-20T13:26:14;7.30;99.90
33095;DHT22;19459;53.044;8.910;2023-12-20T13:28:40;7.30;99.90
33095;DHT22;19459;53.044;8.910;2023-12-20T13:31:06;7.30;99.90
33095;DHT22;19459;53.044;8.910;2023-12-20T13:33:32;7.40;99.90
33095;DHT22;19459;53.044;8.910;2023-12-20T13:35:58;7.40;99.90
33095;DHT22;19459;53.044;8.910;2023-12-20T13:38:25;7.40;99.90
33095;DHT22;19459;53.044;8.910;2023-12-20T13:40:50;7.40;99.90
33095;DHT22;19459;53.044;8.910;2023-12-20T13:43:16;7.40;99.90
33095;DHT22;19459;53.044;8.910;2023-12-20T13:45:46;7.30;99.90
33095;DHT22;19459;53.044;8.910;2023-12-20T13:48:13;7.40;99.90
33095;DHT22;19459;53.044;8.910;2023-12-20T13:50:39;7.30;99.90
33095;DHT22;19459;53.044;8.910;2023-12-20T13:53:05;7.30;99.90
33095;DHT22;19459;53.044;8.910;2023-12-20T13:55:32;7.20;99.90
33095;DHT22;19459;53.044;8.910;2023-12-20T13:57:58;7.20;99.90
33095;DHT22;19459;53.044;8.910;2023-12-20T14:00:26;7.20;99.90
33095;DHT22;19459;53.044;8.910;2023-12-20T14:02:52;7.20;99.90
33095;DHT22;19459;53.044;8.910;2023-12-20T14:05:18;7.10;99.90
33095;DHT22;19459;53.044;8.910;2023-12-20T14:07:45;7.10;99.90
33095;DHT22;19459;53.044;8.910;2023-12-20T14:10:12;7.10;99.90
33095;DHT22;19459;53.044;8.910;2023-12-20T14:12:41;7.10;99.90
33095;DHT22;19459;53.044;8.910;2023-12-20T14:15:07;7.10;99.90
33095;DHT22;19459;53.044;8.910;2023-12-20T14:17:39;7.10;99.90
33095;DHT22;19459;53.044;8.910;2023-12-20T14:20:07;7.10;99.90
33095;DHT22;19459;53.044;8.910;2023-12-20T14:22:35;7.00;99.90
33095;DHT22;19459;53.044;8.910;2023-12-20T14:25:04;7.10;99.90
33095;DHT22;19459;53.044;8.910;2023-12-20T14:27:31;7.00;99.90
33095;DHT22;19459;53.044;8.910;2023-12-20T14:29:58;7.00;99.90
33095;DHT22;19459;53.044;8.910;2023-12-20T14:32:24;7.00;99.90
33095;DHT22;19459;53.044;8.910;2023-12-20T14:34:53;7.00;99.90
33095;DHT22;19459;53.044;8.910;2023-12-20T14:37:20;7.00;99.90
33095;DHT22;19459;53.044;8.910;2023-12-20T14:39:47;7.00;99.90
33095;DHT22;19459;53.044;8.910;2023-12-20T14:42:14;6.90;99.90
33095;DHT22;19459;53.044;8.910;2023-12-20T14:44:40;6.90;99.90
33095;DHT22;19459;53.044;8.910;2023-12-20T14:47:07;6.90;99.90
33095;DHT22;19459;53.044;8.910;2023-12-20T14:49:33;6.90;99.90
33095;DHT22;19459;53.044;8.910;2023-12-20T14:51:59;6.90;99.90
33095;DHT22;19459;53.044;8.910;2023-12-20T14:54:25;6.80;99.90
33095;DHT22;19459;53.044;8.910;2023-12-20T14:56:51;6.80;99.90
33095;DHT22;19459;53.044;8.910;2023-12-20T14:59:17;6.80;99.90
33095;DHT22;19459;53.044;8.910;2023-12-20T15:01:44;6.80;99.90
33095;DHT22;19459;53.044;8.910;2023-12-20T15:04:10;6.80;99.90
33095;DHT22;19459;53.044;8.910;2023-12-20T15:06:36;6.80;99.90
33095;DHT22;19459;53.044;8.910;2023-12-20T15:09:02;6.80;99.90
33095;DHT22;19459;53.044;8.910;2023-12-20T15:11:30;6.80;99.90
33095;DHT22;19459;53.044;8.910;2023-12-20T15:13:56;6.80;99.90
33095;DHT22;19459;53.044;8.910;2023-12-20T15:16:24;6.90;99.90
33095;DHT22;19459;53.044;8.910;2023-12-20T15:18:51;6.80;99.90
33095;DHT22;19459;53.044;8.910;2023-12-20T15:21:17;6.80;99.90
33095;DHT22;19459;53.044;8.910;2023-12-20T15:23:43;6.80;99.90
33095;DHT22;19459;53.044;8.910;2023-12-20T15:26:19;6.80;99.90
33095;DHT22;19459;53.044;8.910;2023-12-20T15:28:45;6.80;99.90
33095;DHT22;19459;53.044;8.910;2023-12-20T15:31:11;6.80;99.90
33095;DHT22;19459;53.044;8.910;2023-12-20T15:33:37;6.80;99.90
33095;DHT22;19459;53.044;8.910;2023-12-20T15:36:04;6.80;99.90
33095;DHT22;19459;53.044;8.910;2023-12-20T15:38:31;6.90;99.90
33095;DHT22;19459;53.044;8.910;2023-12-20T15:40:56;6.90;99.90
33095;DHT22;19459;53.044;8.910;2023-12-20T15:43:22;6.90;99.90
33095;DHT22;19459;53.044;8.910;2023-12-20T15:45:48;6.90;99.90
33095;DHT22;19459;53.044;8.910;2023-12-20T15:48:14;6.90;99.90
33095;DHT22;19459;53.044;8.910;2023-12-20T15:50:44;6.90;99.90